Time;durP1;ratioP1;P1;durP2;ratioP2;P2;SDS_P1;SDS_P2;PMS_P1;PMS_P2;Temp;Humidity;BMP_temperature;BMP_pressure;BME280_temperature;BME280_humidity;BME280_pressure;Samples;Min_cycle;Max_cycle;Signal;HPM_P1;HPM_P2
2023/01/09 00:01:00;;;;;;;;;;;11.70;99.90;;;;;;5091937;28;20461;-66
2023/01/09 00:03:26;;;;;;;;;;;11.70;99.90;;;;;;5092797;28;19962;-65
2023/01/09 00:05:51;;;;;;;;;;;11.70;99.90;;;;;;5096241;28;19917;-65
2023/01/09 00:08:18;;;;;;;;;;;11.80;99.90;;;;;;5073319;28;19908;-67
2023/01/09 00:10:43;;;;;;;;;;;11.80;99.90;;;;;;5089211;28;20452;-65
2023/01/09 00:13:10;;;;;;;;;;;11.70;99.90;;;;;;5096572;28;19955;-64
2023/01/09 00:15:36;;;;;;;;;;;11.60;99.90;;;;;;5089074;28;19919;-64
2023/01/09 00:18:02;;;;;;;;;;;11.70;99.90;;;;;;5092402;28;19912;-64
2023/01/09 00:20:28;;;;;;;;;;;11.70;99.90;;;;;;5104124;28;20411;-66
2023/01/09 00:22:53;;;;;;;;;;;11.70;99.90;;;;;;5106180;28;19912;-66
2023/01/09 00:25:19;;;;;;;;;;;11.70;99.90;;;;;;5112775;28;19919;-65
2023/01/09 00:27:44;;;;;;;;;;;11.60;99.90;;;;;;5100561;28;19908;-64
2023/01/09 00:30:10;;;;;;;;;;;11.60;99.90;;;;;;5092537;28;20385;-66
2023/01/09 00:32:36;;;;;;;;;;;11.60;99.90;;;;;;5091482;28;19974;-65
2023/01/09 00:35:01;;;;;;;;;;;11.60;99.90;;;;;;5092008;28;19919;-64
2023/01/09 00:37:27;;;;;;;;;;;11.60;99.90;;;;;;5092445;28;19908;-66
2023/01/09 00:39:52;;;;;;;;;;;11.60;99.90;;;;;;5090673;28;19912;-66
2023/01/09 00:42:19;;;;;;;;;;;11.60;99.90;;;;;;5092369;28;20000;-66
2023/01/09 00:44:47;;;;;;;;;;;11.50;99.90;;;;;;5089900;28;19944;-65
2023/01/09 00:47:17;;;;;;;;;;;11.60;99.90;;;;;;5091840;28;19961;-63
2023/01/09 00:49:44;;;;;;;;;;;11.60;99.90;;;;;;5073446;28;20003;-64
2023/01/09 00:52:10;;;;;;;;;;;11.60;99.90;;;;;;5072264;28;19972;-64
2023/01/09 00:54:37;;;;;;;;;;;11.60;99.90;;;;;;5071815;28;19952;-64
2023/01/09 00:57:02;;;;;;;;;;;11.60;99.90;;;;;;5064516;28;19958;-65
2023/01/09 00:59:28;;;;;;;;;;;11.60;99.90;;;;;;5091794;28;19931;-65
2023/01/09 01:01:53;;;;;;;;;;;11.60;99.90;;;;;;5097770;28;20290;-66
2023/01/09 01:09:47;;;;;;;;;;;11.60;99.90;;;;;;5091839;28;20272;-65
2023/01/09 01:12:13;;;;;;;;;;;11.60;99.90;;;;;;5091123;28;19908;-65
2023/01/09 01:14:38;;;;;;;;;;;11.60;99.90;;;;;;5104263;28;20501;-65
2023/01/09 01:17:04;;;;;;;;;;;11.60;99.90;;;;;;5092753;28;19908;-65
2023/01/09 01:19:30;;;;;;;;;;;11.60;99.90;;;;;;5091856;28;19924;-65
2023/01/09 01:21:56;;;;;;;;;;;11.70;99.90;;;;;;5093672;28;19926;-65
2023/01/09 01:24:22;;;;;;;;;;;11.60;99.90;;;;;;5088554;28;19930;-64
2023/01/09 01:26:48;;;;;;;;;;;11.60;99.90;;;;;;5076542;28;19912;-65
2023/01/09 01:29:13;;;;;;;;;;;11.60;99.90;;;;;;5108589;28;19934;-64
2023/01/09 01:31:39;;;;;;;;;;;11.60;99.90;;;;;;5099331;28;19915;-64
2023/01/09 01:34:04;;;;;;;;;;;11.60;99.90;;;;;;5108152;28;20009;-64
2023/01/09 01:36:30;;;;;;;;;;;11.60;99.90;;;;;;5101549;28;20266;-64
2023/01/09 01:38:55;;;;;;;;;;;11.60;99.90;;;;;;5110114;28;20396;-65
2023/01/09 01:41:30;;;;;;;;;;;11.60;99.90;;;;;;5095568;28;19911;-65
2023/01/09 01:44:00;;;;;;;;;;;11.60;99.90;;;;;;5103029;28;19922;-65
2023/01/09 01:46:26;;;;;;;;;;;11.60;99.90;;;;;;5068339;28;20293;-65
2023/01/09 01:48:58;;;;;;;;;;;11.60;99.90;;;;;;5102554;28;19912;-65
2023/01/09 01:51:25;;;;;;;;;;;11.50;99.90;;;;;;5092829;28;19909;-65
2023/01/09 01:53:52;;;;;;;;;;;11.50;99.90;;;;;;5091326;28;19919;-65
2023/01/09 01:56:19;;;;;;;;;;;11.50;99.90;;;;;;5084828;28;19931;-65
2023/01/09 01:58:51;;;;;;;;;;;11.40;99.90;;;;;;5070757;28;19920;-64
2023/01/09 02:01:17;;;;;;;;;;;11.40;99.90;;;;;;5070738;28;19913;-65
2023/01/09 02:03:43;;;;;;;;;;;11.40;99.90;;;;;;5070614;28;19908;-66
2023/01/09 02:06:09;;;;;;;;;;;11.40;99.90;;;;;;5089870;28;19916;-65
2023/01/09 02:08:35;;;;;;;;;;;11.30;99.90;;;;;;5091004;28;20511;-65
2023/01/09 02:11:02;;;;;;;;;;;11.30;99.90;;;;;;5091001;28;19919;-66
2023/01/09 02:13:28;;;;;;;;;;;11.20;99.90;;;;;;5089654;28;19948;-65
2023/01/09 02:16:02;;;;;;;;;;;11.30;99.90;;;;;;5088904;28;19919;-65
2023/01/09 02:18:40;;;;;;;;;;;11.30;99.90;;;;;;5091435;28;19934;-65
2023/01/09 02:21:29;;;;;;;;;;;11.30;99.90;;;;;;5088443;28;19981;-65
2023/01/09 02:23:55;;;;;;;;;;;11.30;99.90;;;;;;5066282;28;20016;-65
2023/01/09 02:26:32;;;;;;;;;;;11.30;99.90;;;;;;5070047;28;19909;-66
2023/01/09 02:29:06;;;;;;;;;;;11.30;99.90;;;;;;5089006;28;20345;-65
2023/01/09 02:31:37;;;;;;;;;;;11.30;99.90;;;;;;5087268;28;19999;-65
2023/01/09 02:34:21;;;;;;;;;;;11.30;99.90;;;;;;5090293;28;19912;-65
2023/01/09 02:36:57;;;;;;;;;;;11.30;99.90;;;;;;5089790;28;19923;-64
2023/01/09 02:39:36;;;;;;;;;;;11.30;99.90;;;;;;5089222;28;19916;-66
2023/01/09 02:42:04;;;;;;;;;;;11.30;99.90;;;;;;5105300;28;19912;-64
2023/01/09 02:44:32;;;;;;;;;;;11.30;99.90;;;;;;5098479;28;19916;-64
2023/01/09 02:46:59;;;;;;;;;;;11.30;99.90;;;;;;5098293;28;19980;-64
2023/01/09 02:49:25;;;;;;;;;;;11.30;99.90;;;;;;5102684;28;19926;-64
2023/01/09 02:51:52;;;;;;;;;;;11.30;99.90;;;;;;5102622;28;19908;-64
2023/01/09 02:54:20;;;;;;;;;;;11.30;99.90;;;;;;5103978;28;19918;-64
2023/01/09 02:56:52;;;;;;;;;;;11.30;99.90;;;;;;5091822;28;20269;-64
2023/01/09 02:59:21;;;;;;;;;;;11.30;99.90;;;;;;5109681;28;20010;-65
2023/01/09 03:02:09;;;;;;;;;;;11.30;99.90;;;;;;5105856;28;20421;-64
2023/01/09 03:04:34;;;;;;;;;;;11.30;99.90;;;;;;5105106;28;20056;-64
2023/01/09 03:07:00;;;;;;;;;;;11.30;99.90;;;;;;5100548;28;20015;-65
2023/01/09 03:09:26;;;;;;;;;;;11.30;99.90;;;;;;5103742;28;20147;-65
2023/01/09 03:11:58;;;;;;;;;;;11.30;99.90;;;;;;5095464;28;19923;-65
2023/01/09 03:14:25;;;;;;;;;;;11.30;99.90;;;;;;5099540;28;19912;-65
2023/01/09 03:16:53;;;;;;;;;;;11.30;99.90;;;;;;5092873;28;20373;-65
2023/01/09 03:19:20;;;;;;;;;;;11.30;99.90;;;;;;5075418;28;19923;-65
2023/01/09 03:21:46;;;;;;;;;;;11.30;99.90;;;;;;5073790;28;20343;-65
2023/01/09 03:24:12;;;;;;;;;;;11.30;99.90;;;;;;5098637;28;19908;-65
2023/01/09 03:26:38;;;;;;;;;;;11.30;99.90;;;;;;5109995;28;19933;-64
2023/01/09 03:29:03;;;;;;;;;;;11.30;99.90;;;;;;5097012;28;20396;-65
2023/01/09 03:31:29;;;;;;;;;;;11.30;99.90;;;;;;5089462;28;19908;-65
2023/01/09 03:33:54;;;;;;;;;;;11.30;99.90;;;;;;5090723;28;19927;-65
2023/01/09 03:36:20;;;;;;;;;;;11.30;99.90;;;;;;5090152;28;20485;-65
2023/01/09 03:38:46;;;;;;;;;;;11.30;99.90;;;;;;5086594;28;19921;-65
2023/01/09 03:41:12;;;;;;;;;;;11.30;99.90;;;;;;5076348;28;19918;-66
2023/01/09 03:43:37;;;;;;;;;;;11.30;99.90;;;;;;5079212;28;20645;-66
2023/01/09 03:46:03;;;;;;;;;;;11.30;99.90;;;;;;5081760;28;19943;-65
2023/01/09 03:48:29;;;;;;;;;;;11.30;99.90;;;;;;5082736;28;19926;-66
2023/01/09 03:50:55;;;;;;;;;;;11.30;99.90;;;;;;5081227;28;20400;-65
2023/01/09 03:53:21;;;;;;;;;;;11.30;99.90;;;;;;5091645;28;19998;-65
2023/01/09 03:55:48;;;;;;;;;;;11.20;99.90;;;;;;5110762;28;19938;-65
2023/01/09 03:58:14;;;;;;;;;;;11.20;99.90;;;;;;5106675;28;19920;-65
2023/01/09 04:00:40;;;;;;;;;;;11.20;99.90;;;;;;5081962;28;19928;-65
2023/01/09 04:03:06;;;;;;;;;;;11.20;99.90;;;;;;5079239;28;19962;-65
2023/01/09 04:05:32;;;;;;;;;;;11.30;99.90;;;;;;5078796;28;20448;-65
2023/01/09 04:07:57;;;;;;;;;;;11.30;99.90;;;;;;5087393;28;19932;-64
2023/01/09 04:10:23;;;;;;;;;;;11.30;99.90;;;;;;5088932;28;19918;-65
2023/01/09 04:12:49;;;;;;;;;;;11.30;99.90;;;;;;5079115;28;19970;-65
2023/01/09 04:15:14;;;;;;;;;;;11.40;99.90;;;;;;5064317;28;20559;-66
2023/01/09 04:17:40;;;;;;;;;;;11.30;99.90;;;;;;5087963;28;19969;-66
2023/01/09 04:20:06;;;;;;;;;;;11.40;99.90;;;;;;5076648;28;19920;-64
2023/01/09 04:22:31;;;;;;;;;;;11.50;99.90;;;;;;5080993;28;19962;-65
2023/01/09 04:24:57;;;;;;;;;;;11.50;99.90;;;;;;5106784;28;19999;-65
2023/01/09 04:27:22;;;;;;;;;;;11.60;99.90;;;;;;5113613;28;19914;-64
2023/01/09 04:29:48;;;;;;;;;;;11.60;99.90;;;;;;5098046;28;19908;-65
2023/01/09 04:32:14;;;;;;;;;;;11.60;99.90;;;;;;5092660;28;19908;-65
2023/01/09 04:34:39;;;;;;;;;;;11.70;99.90;;;;;;5087680;28;20261;-63
2023/01/09 04:37:05;;;;;;;;;;;11.70;99.90;;;;;;5094616;28;19996;-64
2023/01/09 04:39:30;;;;;;;;;;;11.80;99.90;;;;;;5084214;28;20011;-66
2023/01/09 04:41:56;;;;;;;;;;;11.80;99.90;;;;;;5076058;28;20028;-66
2023/01/09 04:44:25;;;;;;;;;;;11.80;99.90;;;;;;5079374;28;19928;-66
2023/01/09 04:46:51;;;;;;;;;;;11.80;99.90;;;;;;5074784;28;20304;-64
2023/01/09 04:49:16;;;;;;;;;;;11.80;99.90;;;;;;5076583;28;19920;-66
2023/01/09 04:51:42;;;;;;;;;;;11.80;99.90;;;;;;5074528;28;19920;-65
2023/01/09 04:54:08;;;;;;;;;;;11.90;99.90;;;;;;5075934;28;19969;-65
2023/01/09 04:56:34;;;;;;;;;;;11.90;99.90;;;;;;5080757;28;20373;-65
2023/01/09 04:58:59;;;;;;;;;;;11.90;99.90;;;;;;5074355;28;19924;-65
2023/01/09 05:01:25;;;;;;;;;;;12.00;99.90;;;;;;5078725;28;19966;-65
2023/01/09 05:03:50;;;;;;;;;;;12.10;99.90;;;;;;5060798;28;20460;-64
2023/01/09 05:06:16;;;;;;;;;;;12.10;99.90;;;;;;5081086;28;19971;-65
2023/01/09 05:08:41;;;;;;;;;;;12.20;99.90;;;;;;5081330;28;19947;-65
2023/01/09 05:11:07;;;;;;;;;;;12.20;99.90;;;;;;5078945;28;20011;-65
2023/01/09 05:13:33;;;;;;;;;;;12.20;99.90;;;;;;5080452;28;19919;-65
2023/01/09 05:15:58;;;;;;;;;;;12.20;99.90;;;;;;5077118;28;19920;-65
2023/01/09 05:18:24;;;;;;;;;;;12.20;99.90;;;;;;5096055;28;19934;-65
2023/01/09 05:20:49;;;;;;;;;;;12.20;99.90;;;;;;5100759;28;20239;-65
2023/01/09 05:23:15;;;;;;;;;;;12.20;99.90;;;;;;5076494;28;19912;-65
2023/01/09 05:25:40;;;;;;;;;;;12.20;99.90;;;;;;5078188;28;19927;-65
2023/01/09 05:28:06;;;;;;;;;;;12.20;99.90;;;;;;5082951;28;19920;-65
2023/01/09 05:30:31;;;;;;;;;;;12.20;99.90;;;;;;5078133;28;19916;-66
2023/01/09 05:32:57;;;;;;;;;;;12.20;99.90;;;;;;5079716;28;20354;-66
2023/01/09 05:35:23;;;;;;;;;;;12.10;99.90;;;;;;5077757;28;19920;-66
2023/01/09 05:37:48;;;;;;;;;;;12.10;99.90;;;;;;5081491;28;19927;-66
2023/01/09 05:40:14;;;;;;;;;;;12.10;99.90;;;;;;5077334;28;20421;-66
2023/01/09 05:42:40;;;;;;;;;;;12.10;99.90;;;;;;5108013;28;20020;-66
2023/01/09 05:45:06;;;;;;;;;;;12.10;99.90;;;;;;5072229;28;19991;-65
2023/01/09 05:47:32;;;;;;;;;;;12.10;99.90;;;;;;5079077;28;19917;-66
2023/01/09 05:49:57;;;;;;;;;;;12.10;99.90;;;;;;5085078;28;19920;-65
2023/01/09 05:52:23;;;;;;;;;;;12.10;99.90;;;;;;5089198;28;19912;-65
2023/01/09 05:54:49;;;;;;;;;;;12.10;99.90;;;;;;5088948;28;19980;-65
2023/01/09 05:57:14;;;;;;;;;;;12.20;99.90;;;;;;5071509;28;19912;-65
2023/01/09 05:59:40;;;;;;;;;;;12.20;99.90;;;;;;5088640;28;20018;-65
2023/01/09 06:02:05;;;;;;;;;;;12.20;99.90;;;;;;5105910;28;19915;-66
2023/01/09 06:04:31;;;;;;;;;;;12.20;99.90;;;;;;5090873;28;20392;-66
2023/01/09 06:06:56;;;;;;;;;;;12.20;99.90;;;;;;5089052;28;20270;-66
2023/01/09 06:09:22;;;;;;;;;;;12.20;99.90;;;;;;5087497;28;19930;-65
2023/01/09 06:11:48;;;;;;;;;;;12.20;99.90;;;;;;5095464;28;19959;-65
2023/01/09 06:14:13;;;;;;;;;;;12.20;99.90;;;;;;5084733;28;19964;-66
2023/01/09 06:16:39;;;;;;;;;;;12.20;99.90;;;;;;5092406;28;19919;-65
2023/01/09 06:19:04;;;;;;;;;;;12.20;99.90;;;;;;5107032;28;19912;-66
2023/01/09 06:21:30;;;;;;;;;;;12.20;99.90;;;;;;5097125;28;19920;-66
2023/01/09 06:23:56;;;;;;;;;;;12.20;99.90;;;;;;5098062;28;19917;-66
2023/01/09 06:26:22;;;;;;;;;;;12.10;99.90;;;;;;5101540;28;19912;-66
2023/01/09 06:28:48;;;;;;;;;;;12.20;99.90;;;;;;5097773;28;19990;-65
2023/01/09 06:31:13;;;;;;;;;;;12.20;99.90;;;;;;5090934;28;19916;-64
2023/01/09 06:33:39;;;;;;;;;;;12.10;99.90;;;;;;5093919;28;19928;-65
2023/01/09 06:36:05;;;;;;;;;;;12.10;99.90;;;;;;5100793;28;20007;-65
2023/01/09 06:38:30;;;;;;;;;;;12.10;99.90;;;;;;5096807;28;19926;-66
2023/01/09 06:40:56;;;;;;;;;;;12.10;99.90;;;;;;5083583;28;20339;-65
2023/01/09 06:43:21;;;;;;;;;;;12.10;99.90;;;;;;5099694;28;19920;-65
2023/01/09 06:45:47;;;;;;;;;;;12.10;99.90;;;;;;5099674;28;20002;-67
2023/01/09 06:48:12;;;;;;;;;;;12.20;99.90;;;;;;5101903;28;19989;-66
2023/01/09 06:50:38;;;;;;;;;;;12.20;99.90;;;;;;5098219;28;20293;-65
2023/01/09 06:53:04;;;;;;;;;;;12.20;99.90;;;;;;5105468;28;19911;-65
2023/01/09 06:55:29;;;;;;;;;;;12.30;99.90;;;;;;5085321;28;19920;-64
2023/01/09 06:57:55;;;;;;;;;;;12.20;99.90;;;;;;5089407;28;19956;-64
2023/01/09 07:00:20;;;;;;;;;;;12.20;99.90;;;;;;5097673;28;20358;-65
2023/01/09 07:02:46;;;;;;;;;;;12.20;99.90;;;;;;5082092;28;19916;-65
2023/01/09 07:05:12;;;;;;;;;;;12.30;99.90;;;;;;5102783;28;19916;-65
2023/01/09 07:07:38;;;;;;;;;;;12.30;99.90;;;;;;5100467;28;20431;-65
2023/01/09 07:10:04;;;;;;;;;;;12.30;99.90;;;;;;5092262;28;20534;-65
2023/01/09 07:12:29;;;;;;;;;;;12.40;99.90;;;;;;5086418;28;19946;-65
2023/01/09 07:14:55;;;;;;;;;;;12.40;99.90;;;;;;5089387;28;20085;-66
2023/01/09 07:17:21;;;;;;;;;;;12.50;99.90;;;;;;5101841;28;19912;-66
2023/01/09 07:19:46;;;;;;;;;;;12.50;99.90;;;;;;5103781;28;19916;-66
2023/01/09 07:22:12;;;;;;;;;;;12.50;99.90;;;;;;5085668;28;19960;-66
2023/01/09 07:24:37;;;;;;;;;;;12.60;99.90;;;;;;5074774;28;20002;-66
2023/01/09 07:27:03;;;;;;;;;;;12.50;99.90;;;;;;5097339;28;19923;-65
2023/01/09 07:29:29;;;;;;;;;;;12.60;99.90;;;;;;5097354;28;19920;-65
2023/01/09 07:31:54;;;;;;;;;;;12.60;99.90;;;;;;5098197;28;19912;-65
2023/01/09 07:34:20;;;;;;;;;;;12.60;99.90;;;;;;5087421;28;20486;-64
2023/01/09 07:36:47;;;;;;;;;;;12.70;99.90;;;;;;5090551;28;20298;-64
2023/01/09 07:39:13;;;;;;;;;;;12.60;99.90;;;;;;5097053;28;19924;-66
2023/01/09 07:41:38;;;;;;;;;;;12.70;99.90;;;;;;5097068;28;19935;-66
2023/01/09 07:44:04;;;;;;;;;;;12.70;99.90;;;;;;5095706;28;19996;-66
2023/01/09 07:46:29;;;;;;;;;;;12.70;99.90;;;;;;5082770;28;19919;-66
2023/01/09 07:48:55;;;;;;;;;;;12.70;99.90;;;;;;5083003;28;20357;-66
2023/01/09 07:51:20;;;;;;;;;;;12.70;99.90;;;;;;5089600;28;19981;-66
2023/01/09 07:53:46;;;;;;;;;;;12.70;99.90;;;;;;5082132;28;19916;-65
2023/01/09 07:56:12;;;;;;;;;;;12.70;99.90;;;;;;5087870;28;20411;-64
2023/01/09 07:58:37;;;;;;;;;;;12.70;99.90;;;;;;5092148;28;20274;-66
2023/01/09 08:01:03;;;;;;;;;;;12.70;99.90;;;;;;5079137;28;19947;-64
2023/01/09 08:03:28;;;;;;;;;;;12.70;99.90;;;;;;5086483;28;19912;-65
2023/01/09 08:05:54;;;;;;;;;;;12.80;99.90;;;;;;5088694;28;19916;-66
2023/01/09 08:08:20;;;;;;;;;;;12.80;99.90;;;;;;5086754;28;19912;-66
2023/01/09 08:10:45;;;;;;;;;;;12.80;99.90;;;;;;5087488;28;20002;-65
2023/01/09 08:13:11;;;;;;;;;;;12.80;99.90;;;;;;5087986;28;20431;-67
2023/01/09 08:15:37;;;;;;;;;;;12.90;99.90;;;;;;5087088;28;19955;-67
2023/01/09 08:18:02;;;;;;;;;;;12.90;99.90;;;;;;5095316;28;19923;-65
2023/01/09 08:20:28;;;;;;;;;;;13.00;99.90;;;;;;5096135;28;20442;-65
2023/01/09 08:22:54;;;;;;;;;;;13.00;99.90;;;;;;5100859;28;19983;-65
2023/01/09 08:25:19;;;;;;;;;;;13.00;99.90;;;;;;5101593;28;19911;-65
2023/01/09 08:27:45;;;;;;;;;;;13.00;99.90;;;;;;5077778;28;19916;-65
2023/01/09 08:30:11;;;;;;;;;;;13.00;99.90;;;;;;5096716;28;20340;-66
2023/01/09 08:32:37;;;;;;;;;;;13.00;99.90;;;;;;5101934;28;19912;-64
2023/01/09 08:35:03;;;;;;;;;;;13.10;99.90;;;;;;5101517;28;19993;-63
2023/01/09 08:37:29;;;;;;;;;;;13.10;99.90;;;;;;5111981;28;20035;-66
2023/01/09 08:39:55;;;;;;;;;;;13.20;99.90;;;;;;5113591;28;19918;-64
2023/01/09 08:47:50;;;;;;;;;;;13.30;99.90;;;;;;5102011;28;20025;-63
2023/01/09 08:50:15;;;;;;;;;;;13.40;99.90;;;;;;5102727;28;19951;-64
2023/01/09 08:52:41;;;;;;;;;;;13.40;99.90;;;;;;5098336;28;20388;-63
2023/01/09 08:55:06;;;;;;;;;;;13.50;99.90;;;;;;5107486;28;19920;-66
2023/01/09 08:57:32;;;;;;;;;;;13.50;99.90;;;;;;5076502;28;20599;-65
2023/01/09 08:59:58;;;;;;;;;;;13.50;99.90;;;;;;5080216;28;19912;-62
2023/01/09 09:02:23;;;;;;;;;;;13.50;99.90;;;;;;5078172;28;19921;-65
2023/01/09 09:04:51;;;;;;;;;;;13.60;99.90;;;;;;5078990;28;19993;-64
2023/01/09 09:07:25;;;;;;;;;;;13.60;99.90;;;;;;5077898;28;20281;-64
2023/01/09 09:09:51;;;;;;;;;;;13.70;99.90;;;;;;5076791;28;19920;-64
2023/01/09 09:12:17;;;;;;;;;;;13.60;99.90;;;;;;5078175;28;19920;-63
2023/01/09 09:17:27;;;;;;;;;;;13.70;99.90;;;;;;5077440;28;19946;-63
2023/01/09 09:19:53;;;;;;;;;;;13.80;99.90;;;;;;5076856;28;20010;-64
2023/01/09 09:22:19;;;;;;;;;;;13.80;99.90;;;;;;5081016;28;20746;-63
2023/01/09 09:24:44;;;;;;;;;;;13.80;99.90;;;;;;5082354;28;19971;-64
2023/01/09 09:27:10;;;;;;;;;;;13.70;99.90;;;;;;5074056;28;19912;-64
2023/01/09 09:29:35;;;;;;;;;;;13.70;99.90;;;;;;5060943;28;20444;-63
2023/01/09 09:32:01;;;;;;;;;;;13.70;99.90;;;;;;5077619;28;19973;-64
2023/01/09 09:34:26;;;;;;;;;;;13.70;99.90;;;;;;5073001;28;19931;-64
2023/01/09 09:36:52;;;;;;;;;;;13.80;99.90;;;;;;5075739;28;20266;-66
2023/01/09 09:39:17;;;;;;;;;;;13.80;99.90;;;;;;5078269;28;19924;-63
2023/01/09 09:44:55;;;;;;;;;;;13.80;99.90;;;;;;5073796;28;19919;-64
2023/01/09 09:47:44;;;;;;;;;;;14.00;99.90;;;;;;5071447;28;19912;-63
2023/01/09 09:50:22;;;;;;;;;;;14.10;99.90;;;;;;5071988;28;20641;-64
2023/01/09 09:52:51;;;;;;;;;;;14.30;99.90;;;;;;5078187;28;20390;-62
2023/01/09 09:55:18;;;;;;;;;;;14.30;99.90;;;;;;5091386;28;19957;-67
2023/01/09 09:57:44;;;;;;;;;;;14.40;99.90;;;;;;5095082;28;20381;-62
2023/01/09 10:00:15;;;;;;;;;;;14.40;99.90;;;;;;5098034;28;20366;-64
2023/01/09 10:02:44;;;;;;;;;;;14.40;99.90;;;;;;5099068;28;20426;-62
2023/01/09 10:05:32;;;;;;;;;;;14.50;99.90;;;;;;5090944;28;19920;-65
2023/01/09 10:08:01;;;;;;;;;;;14.40;99.90;;;;;;5080919;28;20374;-63
2023/01/09 10:10:33;;;;;;;;;;;14.30;99.90;;;;;;5078063;28;19936;-63
2023/01/09 10:14:03;;;;;;;;;;;14.30;99.90;;;;;;5095883;28;20007;-63
2023/01/09 10:15:50;;;;;;;;;;;14.20;99.90;;;;;;5074813;28;19913;-64
2023/01/09 10:18:29;;;;;;;;;;;14.20;99.90;;;;;;5077339;28;20183;-65
2023/01/09 10:20:57;;;;;;;;;;;14.20;99.90;;;;;;5075505;28;19920;-65
2023/01/09 10:23:41;;;;;;;;;;;14.20;99.90;;;;;;5102742;28;19958;-63
2023/01/09 10:26:15;;;;;;;;;;;14.10;99.90;;;;;;5091901;28;20027;-64
2023/01/09 10:28:58;;;;;;;;;;;14.10;99.90;;;;;;5099550;28;19961;-63
2023/01/09 10:31:24;;;;;;;;;;;14.10;99.90;;;;;;5093484;28;19913;-64
2023/01/09 10:34:12;;;;;;;;;;;14.10;99.90;;;;;;5111123;28;20433;-64
2023/01/09 10:36:56;;;;;;;;;;;14.10;99.90;;;;;;5097650;28;20486;-67
2023/01/09 10:39:24;;;;;;;;;;;14.10;99.90;;;;;;5084432;28;19943;-63
2023/01/09 10:41:54;;;;;;;;;;;14.10;99.90;;;;;;5100508;28;19938;-65
2023/01/09 10:44:24;;;;;;;;;;;14.10;99.90;;;;;;5099274;28;20376;-65
2023/01/09 10:46:53;;;;;;;;;;;14.10;99.90;;;;;;5101222;28;20009;-65
2023/01/09 10:49:20;;;;;;;;;;;14.10;99.90;;;;;;5083843;28;19959;-63
2023/01/09 10:52:05;;;;;;;;;;;14.20;99.90;;;;;;5083582;28;19939;-64
2023/01/09 10:54:31;;;;;;;;;;;14.20;99.90;;;;;;5073557;28;20006;-65
2023/01/09 10:57:09;;;;;;;;;;;14.30;99.90;;;;;;5103788;28;20017;-63
2023/01/09 10:59:34;;;;;;;;;;;14.30;99.90;;;;;;5096875;28;20360;-65
2023/01/09 11:02:00;;;;;;;;;;;14.40;99.90;;;;;;5109237;28;20438;-63
2023/01/09 11:04:28;;;;;;;;;;;14.40;99.90;;;;;;5097042;28;19938;-64
2023/01/09 11:07:20;;;;;;;;;;;14.40;99.90;;;;;;5092660;28;19928;-63
2023/01/09 11:09:55;;;;;;;;;;;14.40;99.90;;;;;;5092906;28;20393;-62
2023/01/09 11:12:25;;;;;;;;;;;14.50;99.90;;;;;;5090833;28;19920;-63
2023/01/09 11:14:50;;;;;;;;;;;14.60;99.90;;;;;;5085413;28;20301;-63
2023/01/09 11:17:20;;;;;;;;;;;14.70;99.90;;;;;;5089991;28;19917;-62
2023/01/09 11:20:02;;;;;;;;;;;14.90;99.90;;;;;;5104377;28;20456;-62
2023/01/09 11:22:28;;;;;;;;;;;15.10;99.90;;;;;;5101823;28;19919;-64
2023/01/09 11:25:00;;;;;;;;;;;15.20;99.90;;;;;;5091878;28;19913;-65
2023/01/09 11:27:26;;;;;;;;;;;15.30;99.90;;;;;;5104362;28;20083;-65
2023/01/09 11:30:04;;;;;;;;;;;15.30;99.90;;;;;;5108469;28;20349;-64
2023/01/09 11:32:30;;;;;;;;;;;15.30;99.90;;;;;;5103037;28;19908;-67
2023/01/09 11:34:56;;;;;;;;;;;15.30;99.90;;;;;;5084928;28;20528;-64
2023/01/09 11:37:26;;;;;;;;;;;15.30;99.90;;;;;;5070841;28;19953;-65
2023/01/09 11:39:52;;;;;;;;;;;15.20;99.90;;;;;;5078137;28;19916;-65
2023/01/09 11:42:49;;;;;;;;;;;15.10;99.90;;;;;;5090165;28;19936;-65
2023/01/09 11:45:05;;;;;;;;;;;15.20;99.90;;;;;;5107725;28;19969;-64
2023/01/09 11:47:38;;;;;;;;;;;15.00;99.90;;;;;;5110596;28;19944;-66
2023/01/09 11:50:21;;;;;;;;;;;14.90;99.90;;;;;;5093257;28;20372;-63
2023/01/09 11:53:06;;;;;;;;;;;14.80;99.90;;;;;;5089034;28;19977;-65
2023/01/09 11:55:31;;;;;;;;;;;14.80;99.90;;;;;;5091702;28;19911;-65
2023/01/09 11:57:57;;;;;;;;;;;14.70;99.90;;;;;;5100593;28;19944;-64
2023/01/09 12:00:33;;;;;;;;;;;14.60;99.90;;;;;;5111196;28;19972;-64
2023/01/09 12:02:59;;;;;;;;;;;14.50;99.90;;;;;;5109478;28;19927;-61
2023/01/09 12:05:36;;;;;;;;;;;14.40;99.90;;;;;;5103254;28;19915;-62
2023/01/09 12:08:04;;;;;;;;;;;14.40;99.90;;;;;;5107788;28;19926;-64
2023/01/09 12:10:39;;;;;;;;;;;14.30;99.90;;;;;;5113509;28;20016;-61
2023/01/09 12:13:04;;;;;;;;;;;14.30;99.90;;;;;;5105647;28;19992;-64
2023/01/09 12:15:31;;;;;;;;;;;14.30;99.90;;;;;;5094918;28;19915;-64
2023/01/09 12:18:08;;;;;;;;;;;14.20;99.90;;;;;;5105459;28;21886;-64
2023/01/09 12:20:54;;;;;;;;;;;14.10;99.90;;;;;;5104523;28;19937;-62
2023/01/09 12:23:23;;;;;;;;;;;14.00;99.90;;;;;;5094939;28;19969;-63
2023/01/09 12:26:01;;;;;;;;;;;14.00;99.90;;;;;;5096791;28;19920;-63
2023/01/09 12:28:32;;;;;;;;;;;13.90;99.90;;;;;;5105737;28;19947;-61
2023/01/09 12:31:10;;;;;;;;;;;13.80;99.90;;;;;;5096761;28;20317;-62
2023/01/09 12:33:53;;;;;;;;;;;13.70;99.90;;;;;;5095497;28;19920;-63
2023/01/09 12:36:26;;;;;;;;;;;13.60;99.90;;;;;;5098845;28;19912;-62
2023/01/09 12:39:06;;;;;;;;;;;13.40;99.90;;;;;;5076475;28;19916;-64
2023/01/09 12:41:44;;;;;;;;;;;13.40;99.90;;;;;;5092026;28;19916;-64
2023/01/09 12:44:25;;;;;;;;;;;13.40;99.90;;;;;;5102512;28;19912;-63
2023/01/09 12:46:51;;;;;;;;;;;13.30;99.90;;;;;;5072106;28;19913;-62
2023/01/09 12:49:19;;;;;;;;;;;13.30;99.90;;;;;;5092317;28;19919;-65
2023/01/09 12:52:03;;;;;;;;;;;13.30;99.90;;;;;;5100999;28;19911;-63
2023/01/09 12:54:37;;;;;;;;;;;13.20;99.90;;;;;;5102242;28;19915;-61
2023/01/09 12:57:11;;;;;;;;;;;13.30;99.90;;;;;;5101599;28;19912;-64
2023/01/09 12:59:51;;;;;;;;;;;13.30;99.90;;;;;;5091559;28;19919;-65
2023/01/09 13:02:26;;;;;;;;;;;13.40;99.90;;;;;;5075274;28;19993;-62
2023/01/09 13:04:59;;;;;;;;;;;13.50;99.90;;;;;;5090242;28;19912;-65
2023/01/09 13:07:27;;;;;;;;;;;13.50;99.90;;;;;;5094424;28;20558;-62
2023/01/09 13:09:53;;;;;;;;;;;13.60;99.90;;;;;;5085964;28;19981;-66
2023/01/09 13:12:21;;;;;;;;;;;13.50;99.90;;;;;;5096638;28;20461;-64
2023/01/09 13:15:02;;;;;;;;;;;13.50;99.90;;;;;;5112890;28;19907;-61
2023/01/09 13:17:42;;;;;;;;;;;13.40;99.90;;;;;;5106440;28;20322;-64
2023/01/09 13:20:20;;;;;;;;;;;13.30;99.90;;;;;;5102663;28;19916;-63
2023/01/09 13:22:49;;;;;;;;;;;13.20;99.90;;;;;;5103055;28;20534;-61
2023/01/09 13:25:44;;;;;;;;;;;13.30;99.90;;;;;;5107099;28;20340;-64
2023/01/09 13:28:30;;;;;;;;;;;13.20;99.90;;;;;;5067795;28;20023;-61
2023/01/09 13:31:13;;;;;;;;;;;13.20;99.90;;;;;;5095550;28;19922;-63
2023/01/09 13:33:41;;;;;;;;;;;13.30;99.90;;;;;;5100258;28;20380;-64
2023/01/09 13:36:06;;;;;;;;;;;13.30;99.90;;;;;;5096530;28;20804;-64
2023/01/09 13:38:33;;;;;;;;;;;13.30;99.90;;;;;;5092936;28;19920;-62
2023/01/09 13:42:34;;;;;;;;;;;13.30;99.90;;;;;;5096201;28;19958;-62
2023/01/09 13:43:58;;;;;;;;;;;13.20;99.90;;;;;;5067546;28;19970;-64
2023/01/09 13:46:33;;;;;;;;;;;13.20;99.90;;;;;;5106471;28;19958;-63
2023/01/09 13:48:58;;;;;;;;;;;13.20;99.90;;;;;;5107519;28;19927;-65
2023/01/09 13:51:42;;;;;;;;;;;13.20;99.90;;;;;;5102337;28;20468;-62
2023/01/09 13:54:10;;;;;;;;;;;13.20;99.90;;;;;;5100824;28;20021;-63
2023/01/09 13:56:55;;;;;;;;;;;13.10;99.90;;;;;;5073463;28;19913;-63
2023/01/09 13:59:25;;;;;;;;;;;13.10;99.90;;;;;;5106787;28;19916;-64
2023/01/09 14:01:51;;;;;;;;;;;13.00;99.90;;;;;;5107734;28;20397;-65
2023/01/09 14:04:16;;;;;;;;;;;13.00;99.90;;;;;;5106163;28;19915;-65
2023/01/09 14:07:02;;;;;;;;;;;13.00;99.90;;;;;;5089572;28;20346;-62
2023/01/09 14:09:27;;;;;;;;;;;13.00;99.90;;;;;;5100918;28;20389;-62
2023/01/09 14:12:04;;;;;;;;;;;13.00;99.90;;;;;;5109501;28;20041;-63
2023/01/09 14:14:32;;;;;;;;;;;13.00;99.90;;;;;;5108325;28;19931;-63
2023/01/09 14:16:58;;;;;;;;;;;13.00;99.90;;;;;;5098274;28;20310;-63
2023/01/09 14:19:34;;;;;;;;;;;12.90;99.90;;;;;;5100402;28;19923;-63
2023/01/09 14:22:01;;;;;;;;;;;12.90;99.90;;;;;;5108946;28;19919;-62
2023/01/09 14:24:45;;;;;;;;;;;12.90;99.90;;;;;;5081978;28;19917;-65
2023/01/09 14:27:29;;;;;;;;;;;12.90;99.90;;;;;;5082298;28;19950;-64
2023/01/09 14:30:14;;;;;;;;;;;13.00;99.90;;;;;;5100863;28;19912;-63
2023/01/09 14:32:41;;;;;;;;;;;12.90;99.90;;;;;;5091519;28;19917;-64
2023/01/09 14:35:07;;;;;;;;;;;12.90;99.90;;;;;;5099368;28;20392;-64
2023/01/09 14:37:33;;;;;;;;;;;12.90;99.90;;;;;;5111869;28;19950;-64
2023/01/09 14:39:59;;;;;;;;;;;12.90;99.90;;;;;;5089905;28;20374;-61
2023/01/09 14:42:27;;;;;;;;;;;12.90;99.90;;;;;;5106170;28;19919;-61